createdAt,value
2022-12-05T00:01:00.171Z,98.17
2022-12-05T00:03:27.071Z,98.84
2022-12-05T00:05:53.500Z,98.57
2022-12-05T00:08:19.956Z,98.67
2022-12-05T00:10:46.369Z,98.19
2022-12-05T00:13:12.748Z,98.40
2022-12-05T00:15:40.656Z,98.22
2022-12-05T00:18:07.187Z,98.49
2022-12-05T00:20:33.907Z,98.38
2022-12-05T00:23:00.329Z,98.07
2022-12-05T00:25:26.840Z,97.98
2022-12-05T00:27:53.246Z,98.37
2022-12-05T00:30:19.658Z,98.03
2022-12-05T00:32:46.036Z,98.48
2022-12-05T00:35:12.476Z,98.60
2022-12-05T00:37:38.865Z,99.06
2022-12-05T00:40:06.107Z,98.90
2022-12-05T00:42:32.532Z,98.98
2022-12-05T00:44:58.923Z,98.60
2022-12-05T00:47:25.301Z,98.82
2022-12-05T00:49:51.848Z,98.63
2022-12-05T00:52:18.330Z,98.57
2022-12-05T00:54:44.735Z,98.75
2022-12-05T00:57:11.145Z,99.25
2022-12-05T00:59:37.580Z,99.01
2022-12-05T01:02:04.005Z,98.94
2022-12-05T01:04:30.423Z,98.90
2022-12-05T01:06:58.572Z,98.75
2022-12-05T01:09:25.620Z,98.99
2022-12-05T01:11:52.497Z,98.96
2022-12-05T01:14:21.353Z,99.17
2022-12-05T01:16:49.336Z,99.03
2022-12-05T01:19:22.277Z,99.03
2022-12-05T01:21:49.206Z,99.15
2022-12-05T01:24:18.258Z,98.99
2022-12-05T01:26:45.939Z,99.26
2022-12-05T01:29:14.832Z,99.70
2022-12-05T01:31:41.921Z,99.73
2022-12-05T01:34:12.166Z,99.31
2022-12-05T01:36:39.350Z,99.53
2022-12-05T01:39:08.003Z,99.58
2022-12-05T01:41:37.631Z,99.57
2022-12-05T01:44:28.720Z,99.58
2022-12-05T01:46:55.983Z,99.21
2022-12-05T01:49:31.184Z,99.37
2022-12-05T01:52:20.282Z,99.89
2022-12-05T01:54:48.452Z,99.81
2022-12-05T01:57:15.503Z,99.71
2022-12-05T01:59:45.999Z,99.49
2022-12-05T02:02:13.360Z,99.52
2022-12-05T02:05:04.697Z,100.00
2022-12-05T02:07:32.680Z,99.36
2022-12-05T02:09:59.414Z,99.74
2022-12-05T02:12:26.653Z,99.37
2022-12-05T02:15:08.427Z,99.35
2022-12-05T02:17:42.758Z,99.52
2022-12-05T02:20:21.392Z,99.05
2022-12-05T02:23:00.319Z,99.42
2022-12-05T02:29:56.785Z,99.34
2022-12-05T02:33:03.454Z,98.69
2022-12-05T02:35:37.967Z,98.66
2022-12-05T02:38:17.985Z,99.36
2022-12-05T02:40:57.325Z,98.77
2022-12-05T02:43:37.499Z,99.09
2022-12-05T02:46:09.855Z,98.98
2022-12-05T02:48:38.040Z,98.93
2022-12-05T02:51:06.490Z,99.38
2022-12-05T02:53:35.407Z,99.17
2022-12-05T02:56:03.862Z,99.32
2022-12-05T02:58:48.551Z,99.36
2022-12-05T03:01:15.531Z,99.28
2022-12-05T03:03:42.273Z,99.17
2022-12-05T03:06:34.834Z,99.30
2022-12-05T03:09:05.150Z,98.81
2022-12-05T03:11:38.685Z,99.31
2022-12-05T03:14:11.278Z,99.45
2022-12-05T03:16:50.731Z,99.41
2022-12-05T03:19:36.680Z,99.19
2022-12-05T03:22:10.393Z,99.37
2022-12-05T03:24:40.225Z,99.06
2022-12-05T03:27:19.153Z,98.50
2022-12-05T03:29:56.946Z,98.87
2022-12-05T03:32:32.722Z,98.89
2022-12-05T03:35:22.703Z,98.43
2022-12-05T03:38:02.054Z,98.70
2022-12-05T03:40:52.785Z,98.40
2022-12-05T03:43:39.426Z,98.76
2022-12-05T03:46:24.581Z,98.55
2022-12-05T03:49:02.032Z,98.83
2022-12-05T03:51:34.288Z,99.31
2022-12-05T03:54:07.609Z,99.28
2022-12-05T03:56:43.852Z,99.18
2022-12-05T03:59:46.139Z,99.00
2022-12-05T04:02:24.894Z,98.66
2022-12-05T04:04:59.416Z,98.73
2022-12-05T04:07:28.883Z,98.80
2022-12-05T04:09:59.037Z,97.88
2022-12-05T04:12:30.983Z,97.86
2022-12-05T04:15:08.385Z,98.01
2022-12-05T04:17:59.364Z,98.24
2022-12-05T04:20:57.756Z,98.23
2022-12-05T04:23:25.308Z,98.37
2022-12-05T04:26:06.446Z,98.39
2022-12-05T04:28:51.595Z,97.93
2022-12-05T04:31:25.119Z,98.29
2022-12-05T04:34:05.300Z,97.70
2022-12-05T04:36:36.500Z,98.27
2022-12-05T04:39:29.193Z,97.85
2022-12-05T04:42:02.662Z,98.02
2022-12-05T04:44:40.257Z,97.92
2022-12-05T04:47:09.706Z,97.92
2022-12-05T04:49:37.538Z,97.37
2022-12-05T04:52:08.637Z,98.09
2022-12-05T04:54:41.734Z,97.51
2022-12-05T04:57:41.304Z,97.79
2022-12-05T05:00:08.527Z,97.64
2022-12-05T05:02:57.040Z,97.79
2022-12-05T05:05:23.574Z,97.49
2022-12-05T05:07:52.983Z,97.58
2022-12-05T05:10:29.318Z,97.70
2022-12-05T05:12:56.190Z,97.70
2022-12-05T05:15:22.662Z,97.63
2022-12-05T05:17:49.106Z,97.46
2022-12-05T05:20:24.362Z,97.46
2022-12-05T05:22:52.918Z,97.79
2022-12-05T05:25:19.608Z,97.78
2022-12-05T05:27:51.076Z,98.09
2022-12-05T05:30:18.046Z,98.23
2022-12-05T05:32:44.628Z,97.92
2022-12-05T05:35:11.829Z,98.42
2022-12-05T05:37:38.719Z,98.45
2022-12-05T05:40:11.386Z,98.80
2022-12-05T05:42:43.932Z,98.64
2022-12-05T05:45:11.091Z,98.88
2022-12-05T05:47:37.754Z,98.90
2022-12-05T05:50:05.248Z,98.85
2022-12-05T05:52:36.187Z,98.70
2022-12-05T05:55:05.759Z,98.91
2022-12-05T05:57:32.266Z,98.77
2022-12-05T05:59:59.106Z,98.69
2022-12-05T06:02:25.784Z,98.75
2022-12-05T06:04:52.228Z,99.20
2022-12-05T06:07:18.621Z,99.05
2022-12-05T06:09:45.038Z,99.53
2022-12-05T06:12:11.431Z,98.89
2022-12-05T06:14:37.848Z,98.81
2022-12-05T06:17:05.051Z,99.58
2022-12-05T06:19:31.467Z,99.71
2022-12-05T06:21:57.856Z,99.32
2022-12-05T06:24:24.267Z,99.28
2022-12-05T06:26:50.681Z,99.54
2022-12-05T06:29:19.606Z,99.56
2022-12-05T06:31:48.146Z,99.57
2022-12-05T06:34:14.706Z,99.74
2022-12-05T06:36:41.104Z,99.76
2022-12-05T06:39:07.510Z,99.50
2022-12-05T06:41:33.932Z,99.58
2022-12-05T06:44:02.450Z,100.00
2022-12-05T06:46:29.829Z,99.72
2022-12-05T06:48:58.151Z,99.56
2022-12-05T06:51:24.661Z,99.34
2022-12-05T06:53:51.108Z,99.79
2022-12-05T06:56:19.736Z,99.64
2022-12-05T06:58:48.780Z,100.00
2022-12-05T07:01:41.540Z,99.90
2022-12-05T07:04:13.022Z,100.00
2022-12-05T07:06:40.465Z,99.89
2022-12-05T07:09:07.196Z,100.00
2022-12-05T07:11:34.527Z,100.00
2022-12-05T07:14:07.330Z,100.00
2022-12-05T07:16:37.298Z,100.00
2022-12-05T07:19:03.970Z,99.95
2022-12-05T07:21:30.383Z,99.92
2022-12-05T07:23:56.786Z,100.00
2022-12-05T07:26:24.294Z,100.00
2022-12-05T07:28:52.103Z,100.00
2022-12-05T07:31:22.582Z,100.00
2022-12-05T07:33:50.360Z,100.00
2022-12-05T07:36:20.245Z,100.00
2022-12-05T07:38:47.055Z,100.00
2022-12-05T07:41:22.211Z,100.00
2022-12-05T07:43:50.911Z,100.00
2022-12-05T07:46:17.586Z,100.00
2022-12-05T07:48:44.049Z,100.00
2022-12-05T07:51:11.149Z,99.98
2022-12-05T07:53:38.980Z,99.92
2022-12-05T07:56:07.849Z,100.00
2022-12-05T07:58:35.670Z,99.75
2022-12-05T08:01:14.156Z,99.84
2022-12-05T08:03:41.747Z,99.80
2022-12-05T08:06:14.706Z,99.83
2022-12-05T08:08:41.828Z,99.63
2022-12-05T08:11:14.582Z,99.95
2022-12-05T08:13:41.768Z,99.56
2022-12-05T08:16:11.786Z,99.49
2022-12-05T08:18:38.747Z,99.52
2022-12-05T08:21:07.588Z,99.94
2022-12-05T08:23:35.274Z,99.52
2022-12-05T08:26:24.488Z,99.50
2022-12-05T08:28:53.476Z,99.49
2022-12-05T08:31:28.815Z,99.55
2022-12-05T08:33:59.391Z,99.21
2022-12-05T08:36:27.776Z,99.08
2022-12-05T08:38:59.125Z,99.99
2022-12-05T08:41:29.913Z,99.64
2022-12-05T08:44:03.008Z,99.74
2022-12-05T08:46:30.803Z,99.22
2022-12-05T08:48:57.392Z,99.45
2022-12-05T08:51:23.862Z,99.17
2022-12-05T08:53:50.302Z,98.94
2022-12-05T08:56:18.186Z,99.02
2022-12-05T08:58:47.645Z,98.67
2022-12-05T09:01:23.284Z,98.65
2022-12-05T09:03:49.750Z,99.15
2022-12-05T09:06:21.749Z,98.55
2022-12-05T09:08:49.405Z,98.56
2022-12-05T09:11:18.410Z,98.55
2022-12-05T09:13:46.527Z,98.27
2022-12-05T09:16:25.150Z,98.09
2022-12-05T09:18:52.279Z,97.53
2022-12-05T09:21:24.503Z,97.24
2022-12-05T09:23:51.807Z,97.85
2022-12-05T09:26:21.640Z,97.68
2022-12-05T09:28:48.079Z,97.69
2022-12-05T09:31:18.128Z,97.80
2022-12-05T09:33:45.285Z,97.52
2022-12-05T09:36:20.384Z,97.21
2022-12-05T09:38:47.327Z,97.48
2022-12-05T09:41:47.267Z,97.49
2022-12-05T09:44:45.261Z,97.56
2022-12-05T09:47:36.397Z,97.68
2022-12-05T09:50:11.970Z,97.41
2022-12-05T09:52:44.017Z,97.32
2022-12-05T09:55:20.810Z,97.24
2022-12-05T09:57:52.062Z,97.55
2022-12-05T10:00:19.355Z,96.93
2022-12-05T10:02:48.784Z,97.17
2022-12-05T10:05:28.136Z,97.23
2022-12-05T10:08:12.885Z,96.61
2022-12-05T10:10:48.208Z,96.87
2022-12-05T10:13:20.795Z,97.12
2022-12-05T10:15:57.288Z,96.89
2022-12-05T10:18:38.832Z,96.69
2022-12-05T10:21:07.942Z,96.90
2022-12-05T10:24:06.953Z,97.05
2022-12-05T10:26:52.586Z,96.76
2022-12-05T10:29:33.448Z,96.79
2022-12-05T10:32:10.254Z,97.05
2022-12-05T10:34:42.849Z,96.61
2022-12-05T10:37:20.969Z,96.34
2022-12-05T10:39:49.839Z,96.26
2022-12-05T10:42:23.641Z,96.12
2022-12-05T10:44:57.858Z,95.81
2022-12-05T10:47:24.786Z,95.90
2022-12-05T10:49:52.713Z,95.61
2022-12-05T10:52:19.653Z,95.82
2022-12-05T10:54:51.251Z,95.78
2022-12-05T10:57:22.195Z,95.39
2022-12-05T10:59:48.817Z,96.23
2022-12-05T11:02:29.343Z,95.94
2022-12-05T11:04:56.345Z,95.50
2022-12-05T11:07:45.381Z,95.50
2022-12-05T11:10:40.882Z,95.31
2022-12-05T11:13:25.349Z,95.07
2022-12-05T11:15:55.480Z,95.12
2022-12-05T11:18:25.001Z,95.12
2022-12-05T11:20:51.842Z,95.77
2022-12-05T11:23:29.809Z,95.95
2022-12-05T11:25:58.481Z,95.15
2022-12-05T11:28:34.833Z,95.39
2022-12-05T11:31:03.246Z,95.97
2022-12-05T11:33:34.958Z,95.81
2022-12-05T11:36:03.466Z,96.17
2022-12-05T11:38:32.654Z,95.64
2022-12-05T11:41:17.447Z,96.02
2022-12-05T11:43:52.925Z,96.01
2022-12-05T11:46:43.153Z,95.42
2022-12-05T11:49:46.585Z,96.02
2022-12-05T11:52:29.936Z,96.23
2022-12-05T11:55:16.800Z,95.59
2022-12-05T11:57:52.842Z,96.21
2022-12-05T12:00:47.032Z,95.33
2022-12-05T12:03:26.187Z,96.29
2022-12-05T12:06:00.948Z,95.35
2022-12-05T12:08:42.222Z,95.43
2022-12-05T12:11:36.293Z,94.79
2022-12-05T12:14:26.959Z,94.90
2022-12-05T12:17:07.122Z,95.50
2022-12-05T12:20:06.878Z,95.17
2022-12-05T12:22:47.582Z,95.07
2022-12-05T12:25:44.276Z,95.12
2022-12-05T12:28:27.214Z,94.20
2022-12-05T12:31:06.301Z,94.25
2022-12-05T12:33:54.122Z,93.95
2022-12-05T12:36:28.604Z,94.31
2022-12-05T12:39:16.855Z,93.74
2022-12-05T12:42:35.773Z,94.64
2022-12-05T12:45:25.324Z,93.96
2022-12-05T12:48:17.517Z,93.11
2022-12-05T12:50:47.171Z,93.47
2022-12-05T12:53:29.385Z,94.18
2022-12-05T12:56:10.689Z,93.55
2022-12-05T12:59:08.365Z,93.62
2022-12-05T13:01:47.954Z,93.97
2022-12-05T13:04:25.287Z,93.58
2022-12-05T13:07:06.085Z,94.48
2022-12-05T13:09:42.922Z,93.45
2022-12-05T13:12:15.284Z,93.66
2022-12-05T13:14:49.566Z,92.82
2022-12-05T13:17:20.078Z,92.96
2022-12-05T13:19:49.499Z,92.92
2022-12-05T13:22:19.561Z,92.32
2022-12-05T13:24:46.088Z,91.64
2022-12-05T13:27:21.121Z,91.61
2022-12-05T13:29:51.891Z,90.77
2022-12-05T13:32:32.424Z,90.37
2022-12-05T13:35:08.029Z,90.52
2022-12-05T13:37:54.582Z,90.76
2022-12-05T13:40:44.461Z,90.19
2022-12-05T13:43:14.880Z,90.51
2022-12-05T13:45:43.147Z,90.53
2022-12-05T13:48:20.041Z,91.07
2022-12-05T13:51:08.246Z,90.88
2022-12-05T13:53:39.325Z,90.84
2022-12-05T13:56:14.988Z,91.61
2022-12-05T13:58:52.632Z,90.81
2022-12-05T14:01:26.029Z,91.23
2022-12-05T14:03:59.341Z,91.98
2022-12-05T14:06:38.066Z,90.00
2022-12-05T14:09:16.822Z,89.80
2022-12-05T14:12:12.141Z,89.78
2022-12-05T14:14:57.101Z,89.47
2022-12-05T14:17:28.107Z,88.77
2022-12-05T14:20:18.863Z,88.74
2022-12-05T14:23:11.721Z,88.29
2022-12-05T14:26:08.998Z,88.02
2022-12-05T14:28:35.961Z,88.43
2022-12-05T14:31:50.482Z,88.77
2022-12-05T14:34:25.808Z,89.73
2022-12-05T14:37:32.004Z,89.44
2022-12-05T14:40:16.805Z,89.76
2022-12-05T14:42:54.032Z,88.65
2022-12-05T14:45:20.573Z,89.53
2022-12-05T14:47:56.577Z,89.97
2022-12-05T14:50:41.020Z,89.62
2022-12-05T14:53:15.529Z,89.35
2022-12-05T14:55:44.758Z,89.33
2022-12-05T14:58:20.109Z,89.67
2022-12-05T15:00:57.042Z,89.76
2022-12-05T15:03:30.243Z,89.67
2022-12-05T15:06:03.262Z,89.96
2022-12-05T15:08:34.535Z,89.89
2022-12-05T15:11:01.570Z,89.97
2022-12-05T15:13:29.832Z,90.41
2022-12-05T15:16:06.411Z,89.97
2022-12-05T15:18:42.765Z,90.54
2022-12-05T15:21:26.495Z,90.36
2022-12-05T15:23:59.190Z,90.17
2022-12-05T15:26:47.952Z,90.64
2022-12-05T15:29:22.983Z,90.82
2022-12-05T15:31:52.101Z,91.17
2022-12-05T15:34:37.303Z,90.98
2022-12-05T15:37:15.732Z,90.87
2022-12-05T15:40:00.513Z,90.86
2022-12-05T15:42:35.913Z,90.79
2022-12-05T15:45:11.915Z,90.72
2022-12-05T15:47:38.889Z,91.41
2022-12-05T15:50:06.088Z,91.08
2022-12-05T15:52:41.847Z,91.72
2022-12-05T15:55:14.461Z,91.34
2022-12-05T15:57:49.916Z,91.13
2022-12-05T16:00:18.730Z,90.87
2022-12-05T16:02:45.133Z,91.44
2022-12-05T16:05:26.896Z,91.85
2022-12-05T16:07:54.294Z,91.51
2022-12-05T16:10:24.743Z,91.45
2022-12-05T16:12:54.372Z,91.54
2022-12-05T16:15:30.010Z,91.11
2022-12-05T16:17:59.365Z,91.67
2022-12-05T16:20:30.964Z,91.62
2022-12-05T16:23:04.353Z,91.32
2022-12-05T16:25:36.280Z,91.38
2022-12-05T16:28:08.459Z,90.92
2022-12-05T16:30:37.153Z,91.42
2022-12-05T16:33:08.038Z,91.26
2022-12-05T16:35:39.995Z,90.93
2022-12-05T16:38:29.694Z,90.69
2022-12-05T16:40:57.965Z,91.37
2022-12-05T16:43:31.764Z,91.10
2022-12-05T16:46:08.577Z,91.28
2022-12-05T16:48:36.146Z,91.41
2022-12-05T16:51:28.588Z,92.18
2022-12-05T16:53:56.344Z,91.95
2022-12-05T16:56:24.291Z,92.02
2022-12-05T16:58:50.886Z,92.51
2022-12-05T17:01:20.896Z,92.38
2022-12-05T17:03:47.496Z,92.56
2022-12-05T17:06:14.943Z,92.98
2022-12-05T17:08:42.331Z,93.22
2022-12-05T17:11:22.137Z,93.01
2022-12-05T17:13:49.895Z,93.42
2022-12-05T17:16:18.138Z,93.57
2022-12-05T17:18:45.010Z,93.81
2022-12-05T17:21:16.394Z,93.87
2022-12-05T17:23:47.494Z,93.79
2022-12-05T17:26:17.359Z,93.53
2022-12-05T17:28:44.061Z,93.70
2022-12-05T17:31:13.405Z,93.83
2022-12-05T17:33:39.929Z,94.23
2022-12-05T17:36:06.521Z,94.22
2022-12-05T17:38:32.911Z,94.68
2022-12-05T17:41:02.581Z,94.33
2022-12-05T17:43:32.584Z,94.51
2022-12-05T17:46:02.715Z,94.19
2022-12-05T17:48:29.583Z,94.27
2022-12-05T17:50:58.658Z,93.40
2022-12-05T17:53:25.101Z,94.06
2022-12-05T17:55:52.120Z,94.20
2022-12-05T17:58:18.627Z,94.40
2022-12-05T18:00:46.545Z,94.23
2022-12-05T18:03:15.728Z,94.88
2022-12-05T18:05:42.363Z,94.46
2022-12-05T18:08:09.285Z,93.96
2022-12-05T18:10:35.911Z,94.00
2022-12-05T18:13:02.416Z,94.06
2022-12-05T18:15:28.948Z,94.33
2022-12-05T18:17:55.537Z,93.73
2022-12-05T18:20:21.952Z,93.74
2022-12-05T18:22:48.691Z,93.84
2022-12-05T18:25:15.130Z,94.32
2022-12-05T18:27:41.540Z,94.30
2022-12-05T18:30:08.507Z,93.82
2022-12-05T18:32:35.030Z,93.89
2022-12-05T18:35:04.686Z,93.86
2022-12-05T18:37:36.607Z,93.85
2022-12-05T18:40:08.164Z,93.49
2022-12-05T18:42:35.323Z,93.64
2022-12-05T18:45:02.052Z,93.44
2022-12-05T18:47:28.564Z,93.39
2022-12-05T18:49:55.030Z,93.16
2022-12-05T18:52:21.446Z,93.45
2022-12-05T18:54:57.609Z,93.40
2022-12-05T18:57:34.342Z,93.38
2022-12-05T19:00:02.037Z,93.33
2022-12-05T19:02:29.204Z,93.20
2022-12-05T19:04:55.839Z,93.12
2022-12-05T19:07:22.442Z,93.33
2022-12-05T19:09:48.862Z,93.09
2022-12-05T19:12:15.421Z,93.14
2022-12-05T19:14:41.829Z,93.00
2022-12-05T19:17:08.258Z,93.35
2022-12-05T19:19:34.781Z,93.27
2022-12-05T19:22:02.072Z,93.00
2022-12-05T19:24:29.111Z,93.31
2022-12-05T19:26:55.598Z,92.64
2022-12-05T19:29:22.037Z,93.23
2022-12-05T19:31:49.103Z,93.09
2022-12-05T19:34:15.540Z,92.95
2022-12-05T19:36:45.975Z,93.09
2022-12-05T19:39:17.901Z,92.35
2022-12-05T19:41:45.140Z,92.55
2022-12-05T19:44:11.604Z,92.66
2022-12-05T19:46:38.497Z,92.18
2022-12-05T19:49:11.633Z,92.57
2022-12-05T19:51:38.580Z,92.08
2022-12-05T19:54:06.551Z,92.52
2022-12-05T19:56:34.813Z,92.37
2022-12-05T19:59:02.263Z,92.36
2022-12-05T20:01:30.868Z,92.33
2022-12-05T20:04:02.636Z,92.50
2022-12-05T20:06:34.214Z,92.04
2022-12-05T20:09:00.961Z,91.74
2022-12-05T20:11:29.155Z,92.14
2022-12-05T20:13:56.840Z,92.22
2022-12-05T20:16:26.660Z,91.99
2022-12-05T20:18:55.874Z,92.30
2022-12-05T20:21:22.980Z,92.23
2022-12-05T20:23:51.411Z,92.44
2022-12-05T20:26:21.214Z,92.46
2022-12-05T20:28:48.194Z,92.17
2022-12-05T20:31:19.402Z,92.47
2022-12-05T20:33:46.078Z,92.18
2022-12-05T20:36:15.077Z,92.31
2022-12-05T20:38:42.090Z,92.64
2022-12-05T20:41:15.415Z,92.53
2022-12-05T20:43:43.495Z,92.33
2022-12-05T20:46:13.323Z,92.46
2022-12-05T20:48:40.224Z,92.51
2022-12-05T20:51:12.023Z,92.61
2022-12-05T20:53:40.867Z,93.14
2022-12-05T20:56:10.194Z,93.03
2022-12-05T20:58:37.389Z,93.30
2022-12-05T21:01:09.371Z,93.24
2022-12-05T21:03:36.593Z,93.04
2022-12-05T21:06:08.434Z,93.55
2022-12-05T21:08:34.880Z,93.24
2022-12-05T21:11:01.467Z,93.34
2022-12-05T21:13:27.950Z,93.60
2022-12-05T21:15:54.484Z,94.25
2022-12-05T21:18:20.909Z,93.43
2022-12-05T21:21:02.275Z,93.87
2022-12-05T21:23:28.809Z,93.90
2022-12-05T21:25:55.747Z,94.21
2022-12-05T21:28:22.196Z,94.19
2022-12-05T21:30:48.691Z,94.30
2022-12-05T21:33:15.349Z,94.05
2022-12-05T21:35:41.872Z,94.37
2022-12-05T21:38:08.478Z,94.15
2022-12-05T21:40:34.965Z,94.34
2022-12-05T21:43:01.361Z,94.59
2022-12-05T21:45:27.941Z,94.28
2022-12-05T21:47:54.366Z,94.64
2022-12-05T21:50:20.764Z,94.27
2022-12-05T21:52:47.177Z,94.33
2022-12-05T21:55:13.618Z,94.30
2022-12-05T21:57:40.005Z,94.05
2022-12-05T22:00:08.011Z,94.16
2022-12-05T22:02:34.901Z,94.26
2022-12-05T22:05:01.692Z,93.80
2022-12-05T22:07:28.094Z,93.62
2022-12-05T22:09:54.537Z,93.68
2022-12-05T22:12:20.994Z,93.36
2022-12-05T22:14:47.404Z,93.46
2022-12-05T22:17:13.843Z,93.11
2022-12-05T22:19:40.314Z,93.55
2022-12-05T22:22:06.764Z,93.69
2022-12-05T22:24:33.206Z,93.88
2022-12-05T22:26:59.602Z,93.81
2022-12-05T22:29:26.020Z,93.73
2022-12-05T22:31:52.490Z,94.05
2022-12-05T22:34:18.932Z,94.17
2022-12-05T22:36:47.731Z,93.79
2022-12-05T22:39:14.151Z,94.26
2022-12-05T22:41:40.656Z,94.03
2022-12-05T22:44:07.092Z,94.03
2022-12-05T22:46:33.823Z,94.10
2022-12-05T22:49:03.890Z,94.04
2022-12-05T22:51:30.644Z,93.80
2022-12-05T22:53:57.112Z,94.13
2022-12-05T22:56:25.928Z,93.55
2022-12-05T22:58:57.428Z,94.01
2022-12-05T23:01:27.837Z,93.97
2022-12-05T23:03:57.404Z,94.08
2022-12-05T23:06:24.447Z,94.07
2022-12-05T23:08:51.129Z,94.27
2022-12-05T23:11:19.301Z,94.03
2022-12-05T23:13:46.995Z,93.88
2022-12-05T23:16:22.862Z,93.89
2022-12-05T23:18:51.128Z,94.16
2022-12-05T23:21:29.541Z,93.86
2022-12-05T23:23:59.625Z,93.96
2022-12-05T23:26:29.528Z,93.73
2022-12-05T23:28:56.348Z,93.84
2022-12-05T23:31:23.197Z,94.11
2022-12-05T23:33:51.635Z,94.09
2022-12-05T23:36:19.376Z,93.54
2022-12-05T23:38:46.205Z,93.66
2022-12-05T23:41:15.760Z,93.62
2022-12-05T23:43:43.118Z,93.20
2022-12-05T23:46:11.168Z,93.33
2022-12-05T23:48:37.817Z,93.41
2022-12-05T23:51:06.184Z,92.98
2022-12-05T23:53:35.229Z,93.42
2022-12-05T23:56:03.694Z,93.10
2022-12-05T23:58:31.331Z,93.15
